createdAt,value
2022-09-18T00:00:52.071Z,80.75
2022-09-18T00:03:57.445Z,80.43
2022-09-18T00:06:59.459Z,80.72
2022-09-18T00:10:01.466Z,80.70
2022-09-18T00:13:03.402Z,80.40
2022-09-18T00:16:07.796Z,80.97
2022-09-18T00:19:10.643Z,79.41
2022-09-18T00:22:12.621Z,79.73
2022-09-18T00:25:14.602Z,79.32
2022-09-18T00:28:16.568Z,80.16
2022-09-18T00:31:22.650Z,80.36
2022-09-18T00:34:24.711Z,80.51
2022-09-18T00:37:28.088Z,80.22
2022-09-18T00:40:30.146Z,80.93
2022-09-18T00:43:35.221Z,79.83
2022-09-18T00:46:37.806Z,80.28
2022-09-18T00:49:47.917Z,79.73
2022-09-18T00:52:58.333Z,80.75
2022-09-18T00:56:02.648Z,80.96
2022-09-18T00:59:04.692Z,80.75
2022-09-18T01:02:06.914Z,81.93
2022-09-18T01:05:11.438Z,81.93
2022-09-18T01:08:41.889Z,81.50
2022-09-18T01:11:55.434Z,81.35
2022-09-18T01:15:30.051Z,80.15
2022-09-18T01:18:53.232Z,80.28
2022-09-18T01:21:58.175Z,80.13
2022-09-18T01:25:25.373Z,80.84
2022-09-18T01:28:38.325Z,80.37
2022-09-18T01:31:54.618Z,80.12
2022-09-18T01:35:39.604Z,79.61
2022-09-18T01:38:53.097Z,78.79
2022-09-18T01:41:57.506Z,78.40
2022-09-18T01:45:04.626Z,78.35
2022-09-18T01:48:15.191Z,78.71
2022-09-18T01:51:22.502Z,78.37
2022-09-18T01:54:30.504Z,78.57
2022-09-18T01:57:59.154Z,78.97
2022-09-18T02:01:06.274Z,79.40
2022-09-18T02:04:13.821Z,78.84
2022-09-18T02:07:20.759Z,79.64
2022-09-18T02:10:25.783Z,78.83
2022-09-18T02:13:33.225Z,80.00
2022-09-18T02:16:44.574Z,79.34
2022-09-18T02:19:56.393Z,79.37
2022-09-18T02:23:05.024Z,80.06
2022-09-18T02:26:09.674Z,79.20
2022-09-18T02:29:13.727Z,78.88
2022-09-18T02:32:18.918Z,80.10
2022-09-18T02:35:24.258Z,80.02
2022-09-18T02:38:35.914Z,80.42
2022-09-18T02:41:56.391Z,81.78
2022-09-18T02:45:22.172Z,82.23
2022-09-18T02:48:36.770Z,82.55
2022-09-18T02:52:17.489Z,82.85
2022-09-18T02:55:26.397Z,83.44
2022-09-18T02:58:35.573Z,84.20
2022-09-18T03:01:59.101Z,84.80
2022-09-18T03:05:03.035Z,85.06
2022-09-18T03:08:28.261Z,85.78
2022-09-18T03:11:30.326Z,85.03
2022-09-18T03:14:32.347Z,84.71
2022-09-18T03:17:34.499Z,85.22
2022-09-18T03:20:37.218Z,83.60
2022-09-18T03:23:45.344Z,83.99
2022-09-18T03:26:55.004Z,84.19
2022-09-18T03:29:59.361Z,83.92
2022-09-18T03:33:01.366Z,83.90
2022-09-18T03:36:06.057Z,83.79
2022-09-18T03:39:10.216Z,84.08
2022-09-18T03:42:13.067Z,83.16
2022-09-18T03:45:15.582Z,82.73
2022-09-18T03:48:17.817Z,83.38
2022-09-18T03:51:20.703Z,83.57
2022-09-18T03:54:22.747Z,84.40
2022-09-18T03:57:37.915Z,84.37
2022-09-18T04:00:53.813Z,84.02
2022-09-18T04:04:05.617Z,83.89
2022-09-18T04:07:30.528Z,82.80
2022-09-18T04:10:55.225Z,83.20
2022-09-18T04:13:58.348Z,82.16
2022-09-18T04:17:00.686Z,81.89
2022-09-18T04:20:02.898Z,81.81
2022-09-18T04:23:05.559Z,81.83
2022-09-18T04:26:11.862Z,81.46
2022-09-18T04:29:23.777Z,82.12
2022-09-18T04:32:26.372Z,81.60
2022-09-18T04:35:28.496Z,80.71
2022-09-18T04:38:30.557Z,80.25
2022-09-18T04:41:32.713Z,79.13
2022-09-18T04:44:36.292Z,80.28
2022-09-18T04:47:38.692Z,79.74
2022-09-18T04:50:41.734Z,79.18
2022-09-18T04:53:51.732Z,79.43
2022-09-18T04:56:54.061Z,79.03
2022-09-18T04:59:56.860Z,79.29
2022-09-18T05:02:58.923Z,80.04
2022-09-18T05:06:03.042Z,80.38
2022-09-18T05:09:06.301Z,82.32
2022-09-18T05:12:10.099Z,83.64
2022-09-18T05:15:13.309Z,82.66
2022-09-18T05:18:15.329Z,82.46
2022-09-18T05:21:19.576Z,82.96
2022-09-18T05:24:21.720Z,83.02
2022-09-18T05:27:26.992Z,83.82
2022-09-18T05:30:31.855Z,84.34
2022-09-18T05:33:36.771Z,83.65
2022-09-18T05:36:38.907Z,83.34
2022-09-18T05:39:41.460Z,82.30
2022-09-18T05:42:50.687Z,83.41
2022-09-18T05:45:53.170Z,84.19
2022-09-18T05:49:02.421Z,82.59
2022-09-18T05:52:04.422Z,83.15
2022-09-18T05:55:07.027Z,81.17
2022-09-18T05:58:13.942Z,80.93
2022-09-18T06:01:16.384Z,81.15
2022-09-18T06:04:38.957Z,81.35
2022-09-18T06:07:44.326Z,80.81
2022-09-18T06:10:46.355Z,80.33
2022-09-18T06:13:49.448Z,79.90
2022-09-18T06:16:51.641Z,77.81
2022-09-18T06:19:54.122Z,79.71
2022-09-18T06:23:01.002Z,80.64
2022-09-18T06:26:15.164Z,78.78
2022-09-18T06:29:18.347Z,77.25
2022-09-18T06:32:24.511Z,77.42
2022-09-18T06:35:26.544Z,75.99
2022-09-18T06:38:28.598Z,76.05
2022-09-18T06:41:30.678Z,76.03
2022-09-18T06:44:33.032Z,76.16
2022-09-18T06:47:40.380Z,75.02
2022-09-18T06:50:44.470Z,75.42
2022-09-18T06:53:46.754Z,76.65
2022-09-18T06:56:49.532Z,75.18
2022-09-18T06:59:53.547Z,74.28
2022-09-18T07:02:56.450Z,74.76
2022-09-18T07:06:17.149Z,73.90
2022-09-18T07:09:22.662Z,73.72
2022-09-18T07:12:29.654Z,75.02
2022-09-18T07:15:33.867Z,73.64
2022-09-18T07:18:35.930Z,73.23
2022-09-18T07:21:40.239Z,72.91
2022-09-18T07:24:43.640Z,72.76
2022-09-18T07:27:45.630Z,72.69
2022-09-18T07:30:52.771Z,71.11
2022-09-18T07:33:56.210Z,70.60
2022-09-18T07:37:02.128Z,69.25
2022-09-18T07:40:07.100Z,68.18
2022-09-18T07:43:27.721Z,67.34
2022-09-18T07:46:30.460Z,66.32
2022-09-18T07:49:39.036Z,66.28
2022-09-18T07:52:54.833Z,64.17
2022-09-18T07:56:01.236Z,63.50
2022-09-18T07:59:04.224Z,62.31
2022-09-18T08:02:08.717Z,60.88
2022-09-18T08:05:13.842Z,59.99
2022-09-18T08:08:23.579Z,59.11
2022-09-18T08:12:03.901Z,59.37
2022-09-18T08:15:16.005Z,58.31
2022-09-18T08:18:41.099Z,58.62
2022-09-18T08:21:47.725Z,57.90
2022-09-18T08:24:51.665Z,57.99
2022-09-18T08:27:54.350Z,57.16
2022-09-18T08:31:07.574Z,56.85
2022-09-18T08:34:09.770Z,56.04
2022-09-18T08:37:11.900Z,55.47
2022-09-18T08:40:42.698Z,56.03
2022-09-18T08:43:52.364Z,54.88
2022-09-18T08:47:06.909Z,52.24
2022-09-18T08:50:17.161Z,55.02
2022-09-18T08:53:30.584Z,53.74
2022-09-18T08:56:52.474Z,55.56
2022-09-18T09:00:10.524Z,56.17
2022-09-18T09:03:16.757Z,57.26
2022-09-18T09:06:47.649Z,57.47
2022-09-18T09:10:04.532Z,58.68
2022-09-18T09:13:45.779Z,59.43
2022-09-18T09:16:51.977Z,59.81
2022-09-18T09:20:03.847Z,60.88
2022-09-18T09:23:34.661Z,61.38
2022-09-18T09:26:43.571Z,61.64
2022-09-18T09:30:13.672Z,61.21
2022-09-18T09:34:01.081Z,60.62
2022-09-18T09:37:40.074Z,60.84
2022-09-18T09:40:50.657Z,60.72
2022-09-18T09:44:14.781Z,61.40
2022-09-18T09:47:35.687Z,58.96
2022-09-18T09:50:53.755Z,59.66
2022-09-18T09:54:01.547Z,58.47
2022-09-18T09:57:23.233Z,56.90
2022-09-18T10:00:25.466Z,55.09
2022-09-18T10:04:13.483Z,57.72
2022-09-18T10:07:27.076Z,58.38
2022-09-18T10:10:58.986Z,58.64
2022-09-18T10:14:17.035Z,55.87
2022-09-18T10:17:21.724Z,53.42
2022-09-18T10:20:28.953Z,52.64
2022-09-18T10:23:39.167Z,54.00
2022-09-18T10:27:12.522Z,54.81
2022-09-18T10:30:16.328Z,54.92
2022-09-18T10:33:47.016Z,54.60
2022-09-18T10:36:53.636Z,56.11
2022-09-18T10:40:01.497Z,55.06
2022-09-18T10:43:15.885Z,55.15
2022-09-18T10:46:25.647Z,54.80
2022-09-18T10:49:41.077Z,55.22
2022-09-18T10:52:44.577Z,55.11
2022-09-18T10:55:55.887Z,55.80
2022-09-18T10:59:14.124Z,55.38
2022-09-18T11:02:20.234Z,52.47
2022-09-18T11:05:27.003Z,50.93
2022-09-18T11:08:35.776Z,51.04
2022-09-18T11:11:44.100Z,52.24
2022-09-18T11:15:07.926Z,49.24
2022-09-18T11:18:16.244Z,48.70
2022-09-18T11:21:18.734Z,51.29
2022-09-18T11:24:28.421Z,53.03
2022-09-18T11:27:58.843Z,51.73
2022-09-18T11:31:13.153Z,51.72
2022-09-18T11:34:25.869Z,52.21
2022-09-18T11:37:38.425Z,51.12
2022-09-18T11:40:52.196Z,52.35
2022-09-18T11:44:15.447Z,50.75
2022-09-18T11:47:19.707Z,49.66
2022-09-18T11:50:26.394Z,48.21
2022-09-18T11:53:41.295Z,49.71
2022-09-18T11:56:52.112Z,49.63
2022-09-18T12:00:05.014Z,48.69
2022-09-18T12:03:28.079Z,49.46
2022-09-18T12:06:44.405Z,49.59
2022-09-18T12:10:01.383Z,45.29
2022-09-18T12:13:45.488Z,44.68
2022-09-18T12:17:00.243Z,46.64
2022-09-18T12:20:22.113Z,46.27
2022-09-18T12:23:26.922Z,100.00
2022-09-18T12:27:04.410Z,100.00
2022-09-18T12:30:08.457Z,100.00
2022-09-18T12:33:34.537Z,100.00
2022-09-18T12:36:51.654Z,100.00
2022-09-18T12:40:04.407Z,100.00
2022-09-18T12:43:35.383Z,100.00
2022-09-18T12:47:00.783Z,100.00
2022-09-18T12:50:12.057Z,100.00
2022-09-18T12:53:41.591Z,100.00
2022-09-18T12:57:10.067Z,100.00
2022-09-18T13:00:16.643Z,100.00
2022-09-18T13:03:19.009Z,43.82
2022-09-18T13:06:38.913Z,100.00
2022-09-18T13:09:53.597Z,100.00
2022-09-18T13:13:04.320Z,100.00
2022-09-18T13:16:39.243Z,100.00
2022-09-18T13:19:55.790Z,100.00
2022-09-18T13:23:00.641Z,100.00
2022-09-18T13:26:06.156Z,100.00
2022-09-18T13:29:45.414Z,100.00
2022-09-18T13:32:47.420Z,100.00
2022-09-18T13:35:55.812Z,100.00
2022-09-18T13:39:02.614Z,100.00
2022-09-18T13:42:04.900Z,100.00
2022-09-18T13:45:19.039Z,100.00
2022-09-18T13:48:40.916Z,100.00
2022-09-18T13:51:42.907Z,100.00
2022-09-18T13:55:12.825Z,100.00
2022-09-18T13:58:35.711Z,100.00
2022-09-18T14:01:49.352Z,100.00
2022-09-18T14:05:33.363Z,100.00
2022-09-18T14:08:38.699Z,100.00
2022-09-18T14:11:40.701Z,100.00
2022-09-18T14:14:43.925Z,100.00
2022-09-18T14:18:08.273Z,100.00
2022-09-18T14:21:19.392Z,100.00
2022-09-18T14:24:49.829Z,100.00
2022-09-18T14:27:57.340Z,100.00
2022-09-18T14:31:27.320Z,100.00
2022-09-18T14:34:29.279Z,100.00
2022-09-18T14:37:36.365Z,100.00
2022-09-18T14:40:40.347Z,100.00
2022-09-18T14:43:56.126Z,100.00
2022-09-18T14:47:03.761Z,100.00
2022-09-18T14:50:31.138Z,100.00
2022-09-18T14:53:43.005Z,100.00
2022-09-18T14:56:45.075Z,100.00
2022-09-18T14:59:49.890Z,100.00
2022-09-18T15:02:58.753Z,100.00
2022-09-18T15:06:21.353Z,100.00
2022-09-18T15:09:28.227Z,100.00
2022-09-18T15:12:32.856Z,100.00
2022-09-18T15:15:39.687Z,100.00
2022-09-18T15:18:42.888Z,100.00
2022-09-18T15:21:47.897Z,100.00
2022-09-18T15:24:50.275Z,100.00
2022-09-18T15:27:54.988Z,100.00
2022-09-18T15:31:03.714Z,100.00
2022-09-18T15:34:15.564Z,100.00
2022-09-18T15:37:26.050Z,100.00
2022-09-18T15:40:32.359Z,100.00
2022-09-18T15:43:41.333Z,100.00
2022-09-18T15:46:43.397Z,100.00
2022-09-18T15:49:45.345Z,100.00
2022-09-18T15:52:58.235Z,100.00
2022-09-18T15:56:03.364Z,100.00
2022-09-18T15:59:17.080Z,100.00
2022-09-18T16:02:29.321Z,100.00
2022-09-18T16:05:34.667Z,100.00
2022-09-18T16:08:39.115Z,100.00
2022-09-18T16:11:46.577Z,100.00
2022-09-18T16:15:03.048Z,100.00
2022-09-18T16:18:29.369Z,100.00
2022-09-18T16:21:31.540Z,100.00
2022-09-18T16:24:33.618Z,100.00
2022-09-18T16:27:35.647Z,100.00
2022-09-18T16:30:37.899Z,100.00
2022-09-18T16:34:05.098Z,100.00
2022-09-18T16:37:11.144Z,100.00
2022-09-18T16:40:20.856Z,100.00
2022-09-18T16:43:25.256Z,100.00
2022-09-18T16:46:31.489Z,100.00
2022-09-18T16:49:36.850Z,100.00
2022-09-18T16:52:39.004Z,100.00
2022-09-18T16:55:45.163Z,100.00
2022-09-18T16:58:47.242Z,100.00
2022-09-18T17:02:04.484Z,100.00
2022-09-18T17:05:07.095Z,100.00
2022-09-18T17:08:09.515Z,100.00
2022-09-18T17:11:11.666Z,100.00
2022-09-18T17:14:13.878Z,100.00
2022-09-18T17:17:16.413Z,100.00
2022-09-18T17:20:19.256Z,100.00
2022-09-18T17:23:22.948Z,100.00
2022-09-18T17:26:28.820Z,100.00
2022-09-18T17:29:31.183Z,100.00
2022-09-18T17:32:33.678Z,100.00
2022-09-18T17:35:37.474Z,100.00
2022-09-18T17:38:41.693Z,100.00
2022-09-18T17:41:44.123Z,100.00
2022-09-18T17:44:46.600Z,100.00
2022-09-18T17:47:53.834Z,100.00
2022-09-18T17:50:59.021Z,100.00
2022-09-18T17:54:05.058Z,100.00
2022-09-18T17:57:11.972Z,100.00
2022-09-18T18:00:14.582Z,100.00
2022-09-18T18:03:17.016Z,100.00
2022-09-18T18:06:21.774Z,100.00
2022-09-18T18:09:24.562Z,100.00
2022-09-18T18:12:26.546Z,100.00
2022-09-18T18:15:29.375Z,100.00
2022-09-18T18:18:31.835Z,100.00
2022-09-18T18:21:34.684Z,100.00
2022-09-18T18:24:36.822Z,100.00
2022-09-18T18:27:39.020Z,100.00
2022-09-18T18:30:45.901Z,100.00
2022-09-18T18:33:48.453Z,100.00
2022-09-18T18:36:51.237Z,100.00
2022-09-18T18:39:53.778Z,100.00
2022-09-18T18:42:56.243Z,100.00
2022-09-18T18:45:58.809Z,100.00
2022-09-18T18:49:03.215Z,100.00
2022-09-18T18:52:05.776Z,100.00
2022-09-18T18:55:08.546Z,100.00
2022-09-18T18:58:11.350Z,100.00
2022-09-18T19:01:16.561Z,100.00
2022-09-18T19:04:22.094Z,100.00
2022-09-18T19:07:24.248Z,100.00
2022-09-18T19:10:26.305Z,100.00
2022-09-18T19:13:29.698Z,100.00
2022-09-18T19:16:33.024Z,100.00
2022-09-18T19:19:35.397Z,100.00
2022-09-18T19:22:37.767Z,100.00
2022-09-18T19:25:39.972Z,100.00
2022-09-18T19:28:42.246Z,100.00
2022-09-18T19:31:46.693Z,100.00
2022-09-18T19:34:48.934Z,100.00
2022-09-18T19:37:50.957Z,100.00
2022-09-18T19:40:55.961Z,100.00
2022-09-18T19:43:58.698Z,100.00
2022-09-18T19:47:04.727Z,100.00
2022-09-18T19:50:15.554Z,100.00
2022-09-18T19:53:17.482Z,100.00
2022-09-18T19:56:41.685Z,100.00
2022-09-18T19:59:42.302Z,100.00
2022-09-18T20:02:44.690Z,100.00
2022-09-18T20:05:46.653Z,100.00
2022-09-18T20:08:50.411Z,100.00
2022-09-18T20:11:52.458Z,100.00
2022-09-18T20:14:54.605Z,100.00
2022-09-18T20:17:58.345Z,100.00
2022-09-18T20:21:10.136Z,100.00
2022-09-18T20:24:12.317Z,100.00
2022-09-18T20:27:15.597Z,100.00
2022-09-18T20:30:19.670Z,100.00
2022-09-18T20:33:21.717Z,100.00
2022-09-18T20:36:25.886Z,100.00
2022-09-18T20:39:28.425Z,100.00
2022-09-18T20:42:31.823Z,100.00
2022-09-18T20:45:34.069Z,100.00
2022-09-18T20:48:38.660Z,100.00
2022-09-18T20:51:40.683Z,100.00
2022-09-18T20:54:42.681Z,100.00
2022-09-18T20:57:46.845Z,100.00
2022-09-18T21:00:49.009Z,100.00
2022-09-18T21:03:56.882Z,100.00
2022-09-18T21:07:01.903Z,100.00
2022-09-18T21:10:04.641Z,100.00
2022-09-18T21:13:06.997Z,100.00
2022-09-18T21:16:09.822Z,100.00
2022-09-18T21:19:14.701Z,100.00
2022-09-18T21:22:16.749Z,100.00
2022-09-18T21:25:20.068Z,100.00
2022-09-18T21:28:22.586Z,100.00
2022-09-18T21:31:24.827Z,100.00
2022-09-18T21:34:31.502Z,100.00
2022-09-18T21:37:33.521Z,100.00
2022-09-18T21:40:35.828Z,100.00
2022-09-18T21:43:38.573Z,100.00
2022-09-18T21:46:40.702Z,100.00
2022-09-18T21:49:43.599Z,100.00
2022-09-18T21:52:45.519Z,100.00
2022-09-18T21:55:47.930Z,100.00
2022-09-18T21:58:50.484Z,100.00
2022-09-18T22:02:01.978Z,100.00
2022-09-18T22:05:08.490Z,100.00
2022-09-18T22:08:11.525Z,100.00
2022-09-18T22:11:13.528Z,100.00
2022-09-18T22:14:18.965Z,100.00
2022-09-18T22:17:20.942Z,100.00
2022-09-18T22:20:23.065Z,100.00
2022-09-18T22:23:25.316Z,100.00
2022-09-18T22:26:28.660Z,100.00
2022-09-18T22:29:34.442Z,100.00
2022-09-18T22:32:36.638Z,100.00
2022-09-18T22:35:38.962Z,100.00
2022-09-18T22:38:42.023Z,100.00
2022-09-18T22:41:45.008Z,100.00
2022-09-18T22:44:47.063Z,100.00
2022-09-18T22:47:49.149Z,100.00
2022-09-18T22:50:51.106Z,100.00
2022-09-18T22:53:59.450Z,100.00
2022-09-18T22:57:01.433Z,100.00
2022-09-18T23:00:04.825Z,100.00
2022-09-18T23:03:06.780Z,100.00
2022-09-18T23:06:09.231Z,100.00
2022-09-18T23:09:13.827Z,100.00
2022-09-18T23:12:15.812Z,100.00
2022-09-18T23:15:17.830Z,100.00
2022-09-18T23:18:19.786Z,100.00
2022-09-18T23:21:23.146Z,100.00
2022-09-18T23:24:26.411Z,100.00
2022-09-18T23:27:28.392Z,100.00
2022-09-18T23:30:30.371Z,100.00
2022-09-18T23:33:32.593Z,100.00
2022-09-18T23:36:38.443Z,100.00
2022-09-18T23:39:40.467Z,100.00
2022-09-18T23:42:42.438Z,100.00
2022-09-18T23:45:44.519Z,100.00
2022-09-18T23:48:56.674Z,100.00
2022-09-18T23:51:59.786Z,100.00
2022-09-18T23:55:01.734Z,100.00
2022-09-18T23:58:03.636Z,100.00
